Time;durP1;ratioP1;P1;durP2;ratioP2;P2;SDS_P1;SDS_P2;PMS_P1;PMS_P2;Temp;Humidity;BMP_temperature;BMP_pressure;BME280_temperature;BME280_humidity;BME280_pressure;Samples;Min_cycle;Max_cycle;Signal;HPM_P1;HPM_P2
2023/01/05 00:01:21;;;;;;;14.07;4.33;;;11.90;99.90;;;;;;5051852;28;20467;-78
2023/01/05 00:03:48;;;;;;;16.13;4.37;;;11.90;99.90;;;;;;5040245;28;20454;-83
2023/01/05 00:06:17;;;;;;;17.97;4.40;;;11.90;99.90;;;;;;5035266;28;20590;-78
2023/01/05 00:08:44;;;;;;;19.80;4.27;;;11.90;99.90;;;;;;5042641;28;20446;-79
2023/01/05 00:22:31;;;;;;;17.43;6.33;;;11.90;99.90;;;;;;5055551;28;21070;-79
2023/01/05 00:24:59;;;;;;;14.47;3.77;;;11.90;99.90;;;;;;5041789;28;20455;-79
2023/01/05 00:27:25;;;;;;;19.33;4.13;;;11.90;99.90;;;;;;5039313;28;21076;-79
2023/01/05 00:29:54;;;;;;;12.60;3.27;;;11.80;99.90;;;;;;5059869;28;20582;-80
2023/01/05 00:32:21;;;;;;;16.63;4.30;;;11.80;99.90;;;;;;5059430;28;20864;-79
2023/01/05 00:34:49;;;;;;;16.80;3.63;;;11.80;99.90;;;;;;5040822;28;20851;-81
2023/01/05 00:37:16;;;;;;;19.97;4.80;;;11.80;99.90;;;;;;5037161;28;20533;-80
2023/01/05 00:39:43;;;;;;;18.63;3.87;;;11.80;99.90;;;;;;5039755;28;20813;-81
2023/01/05 00:42:09;;;;;;;14.30;3.40;;;11.80;99.90;;;;;;5037406;28;20456;-83
2023/01/05 00:44:36;;;;;;;13.90;4.40;;;11.90;99.90;;;;;;5045059;28;20470;-82
2023/01/05 00:47:05;;;;;;;22.87;4.77;;;11.90;99.90;;;;;;5038596;28;20559;-78
2023/01/05 00:49:31;;;;;;;12.17;4.70;;;11.90;99.90;;;;;;5039742;28;20480;-80
2023/01/05 00:51:59;;;;;;;18.57;4.33;;;11.80;99.90;;;;;;5051162;28;20539;-80
2023/01/05 00:54:25;;;;;;;12.17;4.77;;;11.80;99.90;;;;;;5038261;28;20968;-80
2023/01/05 00:56:52;;;;;;;16.03;5.20;;;11.80;99.90;;;;;;5042712;23;21033;-79
2023/01/05 00:59:19;;;;;;;12.50;4.20;;;11.80;99.90;;;;;;5021285;28;20456;-78
2023/01/05 01:01:46;;;;;;;12.50;3.43;;;11.80;99.90;;;;;;5013918;28;20822;-77
2023/01/05 01:04:14;;;;;;;21.10;4.47;;;11.80;99.90;;;;;;5017271;28;20445;-79
2023/01/05 01:06:41;;;;;;;21.60;4.43;;;11.80;99.90;;;;;;5017465;28;20977;-79
2023/01/05 01:09:09;;;;;;;17.47;4.10;;;11.80;99.90;;;;;;5029657;28;20452;-79
2023/01/05 01:11:36;;;;;;;16.70;4.17;;;11.80;99.90;;;;;;5031523;28;20452;-79
2023/01/05 01:14:04;;;;;;;11.50;4.50;;;11.80;99.90;;;;;;5035652;28;20458;-80
2023/01/05 01:16:31;;;;;;;14.90;3.90;;;11.80;99.90;;;;;;5036782;28;20469;-80
2023/01/05 01:18:59;;;;;;;20.70;4.73;;;11.80;99.90;;;;;;5037768;28;20445;-80
2023/01/05 01:21:27;;;;;;;17.90;4.60;;;11.80;99.90;;;;;;5037685;28;20451;-80
2023/01/05 01:23:54;;;;;;;19.83;4.33;;;11.80;99.90;;;;;;5037256;28;20447;-80
2023/01/05 01:26:21;;;;;;;15.73;4.23;;;11.70;99.90;;;;;;5036715;28;20472;-78
2023/01/05 01:28:48;;;;;;;16.00;3.90;;;11.70;99.90;;;;;;5035681;28;20475;-80
2023/01/05 01:31:15;;;;;;;15.77;4.17;;;11.80;99.90;;;;;;5024470;28;20535;-80
2023/01/05 01:33:42;;;;;;;22.60;4.73;;;11.70;99.90;;;;;;5027919;28;20457;-80
2023/01/05 01:36:09;;;;;;;15.07;4.10;;;11.70;99.90;;;;;;5019029;28;20477;-80
2023/01/05 01:38:37;;;;;;;24.53;4.30;;;11.70;99.90;;;;;;5034026;28;20454;-80
2023/01/05 01:41:05;;;;;;;22.23;4.10;;;11.70;99.90;;;;;;5039841;28;20447;-81
2023/01/05 01:43:44;;;;;;;16.20;3.53;;;11.70;99.90;;;;;;5021665;28;20452;-80
2023/01/05 01:46:11;;;;;;;18.00;4.80;;;11.70;99.90;;;;;;5024961;28;20482;-79
2023/01/05 01:48:42;;;;;;;15.90;4.10;;;11.70;99.90;;;;;;5042967;28;20449;-78
2023/01/05 01:51:13;;;;;;;23.47;5.60;;;11.70;99.90;;;;;;5049478;28;20481;-78
2023/01/05 01:53:45;;;;;;;13.97;3.20;;;11.70;99.90;;;;;;5045555;28;20454;-78
2023/01/05 01:56:15;;;;;;;19.93;5.23;;;11.70;99.90;;;;;;5039999;28;20587;-79
2023/01/05 01:58:42;;;;;;;15.70;4.50;;;11.60;99.90;;;;;;5046706;28;20971;-80
2023/01/05 02:01:10;;;;;;;18.77;4.90;;;11.70;99.90;;;;;;5034285;28;20456;-79
2023/01/05 02:03:37;;;;;;;15.43;3.70;;;11.70;99.90;;;;;;5028202;28;20465;-79
2023/01/05 02:06:05;;;;;;;14.10;3.93;;;11.70;99.90;;;;;;5029089;28;20476;-78
2023/01/05 02:08:31;;;;;;;21.60;3.83;;;11.70;99.90;;;;;;5038948;28;20471;-78
2023/01/05 02:11:13;;;;;;;16.10;3.70;;;11.70;99.90;;;;;;5058172;28;20544;-79
2023/01/05 02:13:56;;;;;;;21.90;4.50;;;11.70;99.90;;;;;;5051963;28;21028;-79
2023/01/05 02:16:31;;;;;;;12.17;4.10;;;11.70;99.90;;;;;;5046657;28;21030;-79
2023/01/05 02:19:22;;;;;;;22.73;4.00;;;11.70;99.90;;;;;;5046201;28;20452;-78
2023/01/05 02:22:01;;;;;;;15.10;4.70;;;11.70;99.90;;;;;;5046882;28;20444;-79
2023/01/05 02:24:57;;;;;;;17.20;3.93;;;11.60;99.90;;;;;;5046615;28;20452;-79
2023/01/05 02:27:40;;;;;;;19.20;4.27;;;11.60;99.90;;;;;;5046795;28;20545;-78
2023/01/05 02:30:53;;;;;;;17.07;3.17;;;11.60;99.90;;;;;;5045388;28;20488;-79
2023/01/05 02:33:27;;;;;;;16.73;4.30;;;11.60;99.90;;;;;;5018430;28;20451;-79
2023/01/05 02:36:02;;;;;;;22.83;5.67;;;11.50;99.90;;;;;;5045910;28;20451;-79
2023/01/05 02:38:35;;;;;;;22.83;4.20;;;11.50;99.90;;;;;;5044904;28;20481;-78
2023/01/05 02:41:11;;;;;;;13.03;3.17;;;11.50;99.90;;;;;;5045088;28;20451;-79
2023/01/05 02:43:38;;;;;;;15.17;4.00;;;11.50;99.90;;;;;;5046466;28;20801;-79
2023/01/05 02:46:06;;;;;;;9.73;3.90;;;11.50;99.90;;;;;;5045779;28;20540;-79
2023/01/05 02:48:33;;;;;;;13.93;4.00;;;11.40;99.90;;;;;;5044507;28;20447;-79
2023/01/05 02:51:05;;;;;;;20.13;4.70;;;11.50;99.90;;;;;;5045371;28;20488;-78
2023/01/05 02:53:36;;;;;;;22.60;5.00;;;11.50;99.90;;;;;;5046102;28;20462;-79
2023/01/05 02:56:10;;;;;;;14.93;3.60;;;11.50;99.90;;;;;;5045041;28;20475;-79
2023/01/05 02:58:41;;;;;;;13.43;3.20;;;11.50;99.90;;;;;;5044917;28;20535;-78
2023/01/05 03:01:13;;;;;;;16.10;4.23;;;11.40;99.90;;;;;;5045280;28;20447;-79
2023/01/05 03:03:43;;;;;;;18.73;4.60;;;11.50;99.90;;;;;;5045602;28;20983;-80
2023/01/05 03:06:16;;;;;;;26.27;4.70;;;11.50;99.90;;;;;;5045368;28;21049;-78
2023/01/05 03:08:51;;;;;;;17.60;4.50;;;11.40;99.90;;;;;;5045275;28;20452;-79
2023/01/05 03:14:12;;;;;;;12.73;3.97;;;11.40;99.90;;;;;;5045522;28;20474;-78
2023/01/05 03:16:40;;;;;;;8.63;3.43;;;11.40;99.90;;;;;;5043316;28;20542;-79
2023/01/05 03:35:54;;;;;;;12.63;4.07;;;11.40;99.90;;;;;;5022731;28;20522;-80
2023/01/05 03:38:26;;;;;;;18.27;4.37;;;11.30;99.90;;;;;;5040878;28;20470;-81
2023/01/05 03:40:57;;;;;;;17.83;4.63;;;11.30;99.90;;;;;;5042211;28;21057;-79
2023/01/05 03:43:25;;;;;;;16.40;5.33;;;11.30;99.90;;;;;;5042295;28;20449;-80
2023/01/05 03:45:53;;;;;;;21.43;5.40;;;11.30;99.90;;;;;;5042462;28;20449;-79
2023/01/05 03:48:23;;;;;;;24.37;4.07;;;11.30;99.90;;;;;;5044807;28;20448;-80
2023/01/05 03:50:50;;;;;;;12.83;4.63;;;11.30;99.90;;;;;;5041679;28;20870;-80
2023/01/05 03:53:17;;;;;;;16.93;3.40;;;11.30;99.90;;;;;;5022843;28;20468;-81
2023/01/05 03:55:44;;;;;;;16.00;4.40;;;11.30;99.90;;;;;;5020629;28;20453;-81
2023/01/05 03:58:11;;;;;;;23.30;4.90;;;11.30;99.90;;;;;;5038885;28;20528;-81
2023/01/05 04:00:38;;;;;;;11.67;4.30;;;11.30;99.90;;;;;;5045118;28;21186;-79
2023/01/05 04:03:04;;;;;;;15.10;4.17;;;11.20;99.90;;;;;;5049610;28;20481;-81
2023/01/05 04:05:33;;;;;;;17.30;4.53;;;11.20;99.90;;;;;;5041138;28;20527;-81
2023/01/05 04:07:59;;;;;;;17.10;4.90;;;11.20;99.90;;;;;;5042187;28;20476;-81
2023/01/05 04:10:26;;;;;;;12.37;4.23;;;11.10;99.90;;;;;;5043972;28;20493;-81
2023/01/05 04:12:53;;;;;;;12.83;4.53;;;10.90;99.90;;;;;;5043533;28;20444;-82
2023/01/05 04:15:20;;;;;;;25.27;6.10;;;10.90;99.90;;;;;;5039454;28;20458;-80
2023/01/05 04:17:47;;;;;;;15.97;5.57;;;10.80;99.90;;;;;;5030493;28;20468;-81
2023/01/05 04:20:14;;;;;;;23.33;6.33;;;10.70;99.90;;;;;;5020871;28;20517;-81
2023/01/05 04:22:42;;;;;;;23.23;5.33;;;10.60;99.90;;;;;;5016993;28;20536;-80
2023/01/05 04:25:09;;;;;;;18.47;4.90;;;10.50;99.90;;;;;;5016919;28;20823;-79
2023/01/05 04:27:36;;;;;;;22.00;5.40;;;10.50;99.90;;;;;;5027875;28;20554;-80
2023/01/05 04:30:03;;;;;;;24.20;5.50;;;10.50;99.90;;;;;;5037233;28;21088;-80
2023/01/05 04:32:30;;;;;;;27.33;5.57;;;10.50;99.90;;;;;;5034993;28;20456;-80
2023/01/05 04:34:57;;;;;;;21.63;5.17;;;10.50;99.90;;;;;;5034504;28;21007;-80
2023/01/05 04:37:24;;;;;;;17.67;5.43;;;10.50;99.90;;;;;;5034886;28;20489;-80
2023/01/05 04:39:52;;;;;;;17.00;5.50;;;10.50;99.90;;;;;;5028019;28;20482;-81
2023/01/05 04:42:19;;;;;;;25.93;6.33;;;10.50;99.90;;;;;;5022852;28;20444;-81
2023/01/05 04:44:45;;;;;;;17.57;6.10;;;10.50;99.90;;;;;;5024928;28;20827;-80
2023/01/05 04:47:12;;;;;;;20.23;6.80;;;10.60;99.90;;;;;;5025124;28;20478;-80
2023/01/05 04:49:39;;;;;;;18.60;5.67;;;10.60;99.90;;;;;;5034405;28;20466;-80
2023/01/05 04:52:06;;;;;;;14.40;4.67;;;10.60;99.90;;;;;;5033739;28;20487;-80
2023/01/05 04:54:33;;;;;;;26.70;5.53;;;10.70;99.90;;;;;;5028929;28;20981;-80
2023/01/05 04:57:03;;;;;;;19.10;5.60;;;10.60;99.90;;;;;;5030961;28;20491;-78
2023/01/05 04:59:29;;;;;;;18.10;5.00;;;10.70;99.90;;;;;;5024847;28;20459;-78
2023/01/05 05:01:56;;;;;;;25.13;6.10;;;10.70;99.90;;;;;;5032888;28;20491;-77
2023/01/05 05:04:23;;;;;;;18.63;4.43;;;10.70;99.90;;;;;;5033947;28;20456;-80
2023/01/05 05:06:50;;;;;;;13.17;4.90;;;10.80;99.90;;;;;;5033122;28;20486;-78
2023/01/05 05:09:16;;;;;;;14.17;5.27;;;10.80;99.90;;;;;;5033189;28;20454;-80
2023/01/05 05:11:43;;;;;;;21.70;6.57;;;10.80;99.90;;;;;;5032750;28;20862;-79
2023/01/05 05:14:11;;;;;;;15.40;3.97;;;10.80;99.90;;;;;;5026846;28;20456;-80
2023/01/05 05:16:38;;;;;;;20.67;5.27;;;10.90;99.90;;;;;;5028982;28;20477;-80
2023/01/05 05:19:05;;;;;;;17.37;5.40;;;10.90;99.90;;;;;;5022272;28;20842;-80
2023/01/05 05:21:32;;;;;;;16.57;4.60;;;10.90;99.90;;;;;;5032196;28;20459;-78
2023/01/05 05:23:58;;;;;;;6.87;3.73;;;10.90;99.90;;;;;;5034168;28;20535;-80
2023/01/05 05:26:25;;;;;;;26.23;5.13;;;11.00;99.90;;;;;;5033483;28;20839;-80
2023/01/05 05:28:52;;;;;;;18.77;4.40;;;11.00;99.90;;;;;;5034527;28;20456;-80
2023/01/05 05:31:21;;;;;;;19.07;5.67;;;10.90;99.90;;;;;;5033723;28;20484;-80
2023/01/05 05:33:48;;;;;;;13.53;4.63;;;10.80;99.90;;;;;;5034707;28;20455;-80
2023/01/05 05:36:16;;;;;;;15.37;5.17;;;10.80;99.90;;;;;;5034432;28;20473;-80
2023/01/05 05:38:43;;;;;;;19.67;6.30;;;10.80;99.90;;;;;;5034075;28;20901;-79
2023/01/05 05:41:10;;;;;;;21.53;6.30;;;10.70;99.90;;;;;;5027758;28;20464;-79
2023/01/05 05:43:37;;;;;;;27.10;7.03;;;10.60;99.90;;;;;;5034832;28;20469;-83
2023/01/05 05:46:04;;;;;;;19.13;5.63;;;10.50;99.90;;;;;;5034424;28;20486;-80
2023/01/05 05:48:32;;;;;;;24.97;6.33;;;10.40;99.90;;;;;;5033689;28;20451;-84
2023/01/05 05:50:59;;;;;;;18.10;7.00;;;10.40;99.90;;;;;;5034902;28;20494;-80
2023/01/05 05:53:26;;;;;;;28.43;6.13;;;10.30;99.90;;;;;;5037265;28;20477;-80
2023/01/05 05:55:52;;;;;;;22.23;6.07;;;10.30;99.90;;;;;;5046268;28;20482;-79
2023/01/05 05:58:20;;;;;;;21.13;5.27;;;10.30;99.90;;;;;;5053946;28;20497;-79
2023/01/05 06:00:47;;;;;;;29.87;6.73;;;10.20;99.90;;;;;;5043642;28;20461;-79
2023/01/05 06:03:14;;;;;;;21.93;6.77;;;10.30;99.90;;;;;;5034649;28;20455;-80
2023/01/05 06:05:42;;;;;;;32.00;7.20;;;10.20;99.90;;;;;;5034735;28;20847;-80
2023/01/05 06:08:08;;;;;;;16.93;6.67;;;10.20;99.90;;;;;;5034337;28;20480;-80
2023/01/05 06:10:35;;;;;;;18.60;5.67;;;10.20;99.90;;;;;;5033660;28;20986;-79
2023/01/05 06:13:02;;;;;;;17.93;5.60;;;10.20;99.90;;;;;;5044190;28;20523;-80
2023/01/05 06:15:29;;;;;;;26.70;6.47;;;10.30;99.90;;;;;;5040653;28;20460;-79
2023/01/05 06:17:56;;;;;;;34.00;8.13;;;10.30;99.90;;;;;;5033016;28;20481;-79
2023/01/05 06:20:22;;;;;;;25.97;8.20;;;10.20;99.90;;;;;;5033675;28;20960;-79
2023/01/05 06:22:51;;;;;;;21.10;5.87;;;10.20;99.90;;;;;;5035665;28;20454;-79
2023/01/05 06:25:18;;;;;;;22.17;6.50;;;10.20;99.90;;;;;;5037310;28;20455;-78
2023/01/05 06:27:44;;;;;;;18.30;6.17;;;10.20;99.90;;;;;;5034790;28;20474;-77
2023/01/05 06:30:12;;;;;;;31.23;6.67;;;10.20;99.90;;;;;;5037224;28;20967;-78
2023/01/05 06:32:39;;;;;;;29.23;6.93;;;10.20;99.90;;;;;;5037288;28;20481;-77
2023/01/05 06:35:06;;;;;;;25.53;6.87;;;10.20;99.90;;;;;;5037865;28;20458;-78
2023/01/05 06:37:33;;;;;;;70.07;28.93;;;10.20;99.90;;;;;;5037566;28;20546;-78
2023/01/05 06:40:01;;;;;;;22.83;9.13;;;10.30;99.90;;;;;;5037269;28;20463;-78
2023/01/05 06:42:28;;;;;;;19.40;6.80;;;10.20;99.90;;;;;;5037747;28;20479;-78
2023/01/05 06:44:55;;;;;;;26.70;7.40;;;10.30;99.90;;;;;;5022167;28;20454;-79
2023/01/05 06:47:22;;;;;;;23.87;7.53;;;10.30;99.90;;;;;;5037808;28;21028;-78
2023/01/05 06:49:48;;;;;;;22.43;7.60;;;10.30;99.90;;;;;;5036886;28;20470;-80
2023/01/05 06:52:15;;;;;;;23.07;6.50;;;10.20;99.90;;;;;;5038616;28;20489;-82
2023/01/05 06:54:42;;;;;;;18.53;6.53;;;10.20;99.90;;;;;;5039795;28;20526;-83
2023/01/05 06:57:10;;;;;;;21.00;7.97;;;10.20;99.90;;;;;;5059510;22;20507;-79
2023/01/05 06:59:37;;;;;;;31.80;7.10;;;10.20;99.90;;;;;;5032487;28;20463;-79
2023/01/05 07:02:04;;;;;;;23.77;7.23;;;10.20;99.90;;;;;;5036605;28;20534;-78
2023/01/05 07:04:31;;;;;;;18.30;6.40;;;10.20;99.90;;;;;;5038217;28;20459;-79
2023/01/05 07:06:57;;;;;;;16.10;6.57;;;10.20;99.90;;;;;;5037441;28;20559;-78
2023/01/05 07:09:24;;;;;;;23.30;8.10;;;10.20;99.90;;;;;;5032323;28;20466;-78
2023/01/05 07:11:51;;;;;;;22.93;7.83;;;10.20;99.90;;;;;;5031493;28;20950;-77
2023/01/05 07:14:19;;;;;;;16.50;5.40;;;10.20;99.90;;;;;;5031553;28;20546;-78
2023/01/05 07:16:46;;;;;;;22.27;8.43;;;10.20;99.90;;;;;;5033363;28;20478;-78
2023/01/05 07:19:13;;;;;;;14.30;6.63;;;10.10;99.90;;;;;;5034063;28;20454;-78
2023/01/05 07:21:40;;;;;;;20.53;7.40;;;10.20;99.90;;;;;;5035076;28;20451;-78
2023/01/05 07:24:07;;;;;;;23.10;6.63;;;10.10;99.90;;;;;;5035487;28;20460;-78
2023/01/05 07:26:34;;;;;;;16.87;6.60;;;10.20;99.90;;;;;;5034446;28;21067;-78
2023/01/05 07:29:01;;;;;;;26.20;6.93;;;10.20;99.90;;;;;;5033390;28;20836;-78
2023/01/05 07:31:29;;;;;;;15.83;5.97;;;10.20;99.90;;;;;;5031940;28;20505;-78
2023/01/05 07:33:56;;;;;;;21.60;6.43;;;10.20;99.90;;;;;;5030111;28;20458;-78
2023/01/05 07:36:24;;;;;;;29.20;8.70;;;10.30;99.90;;;;;;5032082;28;20456;-78
2023/01/05 07:38:52;;;;;;;28.67;8.43;;;10.20;99.90;;;;;;5029830;28;20455;-78
2023/01/05 07:41:19;;;;;;;17.97;6.50;;;10.10;99.90;;;;;;5032822;28;20859;-78
2023/01/05 07:43:48;;;;;;;27.80;7.20;;;10.10;99.90;;;;;;5020776;28;20504;-79
2023/01/05 07:46:15;;;;;;;26.47;8.20;;;10.10;99.90;;;;;;5034144;28;20460;-78
2023/01/05 07:48:43;;;;;;;21.80;7.00;;;10.10;99.90;;;;;;5029157;28;20475;-78
2023/01/05 07:51:11;;;;;;;16.13;7.47;;;10.10;99.90;;;;;;5021810;28;20845;-78
2023/01/05 07:53:38;;;;;;;24.60;6.90;;;10.10;99.90;;;;;;5031085;28;20454;-78
2023/01/05 07:56:06;;;;;;;27.60;7.93;;;10.20;99.90;;;;;;5027037;28;20956;-78
2023/01/05 07:58:33;;;;;;;23.63;7.00;;;10.20;99.90;;;;;;5030089;28;20484;-78
2023/01/05 08:01:03;;;;;;;24.43;9.03;;;10.20;99.90;;;;;;5023066;28;20462;-78
2023/01/05 08:03:30;;;;;;;23.50;7.37;;;10.20;99.90;;;;;;5030756;28;20456;-79
2023/01/05 08:06:03;;;;;;;31.70;7.83;;;10.20;99.90;;;;;;5030569;28;20455;-78
2023/01/05 08:08:29;;;;;;;26.10;7.83;;;10.20;99.90;;;;;;5033773;28;20478;-78
2023/01/05 08:10:56;;;;;;;26.20;8.00;;;10.20;99.90;;;;;;5031995;28;20447;-78
2023/01/05 08:16:08;;;;;;;29.60;8.50;;;10.20;99.90;;;;;;5028632;28;20439;-78
2023/01/05 08:18:35;;;;;;;27.93;9.93;;;10.20;99.90;;;;;;5027601;28;20473;-78
2023/01/05 08:21:03;;;;;;;21.47;7.43;;;10.20;99.90;;;;;;5030650;28;20506;-79
2023/01/05 08:23:31;;;;;;;31.27;8.10;;;10.30;99.90;;;;;;5029517;28;20448;-78
2023/01/05 08:26:02;;;;;;;18.70;7.70;;;10.30;99.90;;;;;;5027073;28;20470;-78
2023/01/05 08:28:29;;;;;;;20.50;7.43;;;10.20;99.90;;;;;;5025481;28;20480;-79
2023/01/05 08:31:00;;;;;;;20.03;8.57;;;10.20;99.90;;;;;;5033259;28;20466;-78
2023/01/05 08:33:28;;;;;;;21.77;7.70;;;10.30;99.90;;;;;;5025617;28;20584;-78
2023/01/05 08:35:54;;;;;;;27.43;8.27;;;10.40;99.90;;;;;;5022569;28;20879;-79
2023/01/05 08:38:23;;;;;;;23.60;6.90;;;10.40;99.90;;;;;;5026290;28;20983;-78
2023/01/05 08:40:50;;;;;;;18.27;6.30;;;10.40;99.90;;;;;;5033466;28;20463;-79
2023/01/05 08:43:17;;;;;;;20.77;7.60;;;10.50;99.90;;;;;;5033198;28;20589;-78
2023/01/05 08:45:48;;;;;;;30.80;7.93;;;10.50;99.90;;;;;;5031837;28;20459;-78
2023/01/05 08:48:15;;;;;;;20.77;6.23;;;10.50;99.90;;;;;;5032826;28;20534;-80
2023/01/05 08:50:42;;;;;;;23.13;6.53;;;10.50;99.90;;;;;;5032643;28;20447;-81
2023/01/05 08:53:09;;;;;;;24.93;6.90;;;10.50;99.90;;;;;;5050390;28;20527;-83
2023/01/05 08:55:37;;;;;;;26.43;7.60;;;10.60;99.90;;;;;;5050501;28;20515;-84
2023/01/05 08:58:05;;;;;;;22.23;7.30;;;10.60;99.90;;;;;;5051148;28;20554;-83
2023/01/05 09:00:32;;;;;;;17.90;6.87;;;10.70;99.90;;;;;;5049434;28;20469;-83
2023/01/05 09:02:59;;;;;;;16.63;6.40;;;10.70;99.90;;;;;;5051805;28;20447;-82
2023/01/05 09:05:26;;;;;;;23.30;7.13;;;10.80;99.90;;;;;;5053348;28;20471;-83
2023/01/05 09:07:52;;;;;;;15.23;6.50;;;10.80;99.90;;;;;;5053007;28;20479;-82
2023/01/05 09:10:19;;;;;;;17.40;5.77;;;10.80;99.90;;;;;;5054953;28;20468;-82
2023/01/05 09:12:48;;;;;;;13.97;5.77;;;10.80;99.90;;;;;;5053789;28;20510;-81
2023/01/05 09:15:15;;;;;;;19.73;5.63;;;10.80;99.90;;;;;;5052886;28;20968;-84
2023/01/05 09:17:41;;;;;;;24.53;6.90;;;10.90;99.90;;;;;;5052939;28;20489;-81
2023/01/05 09:20:09;;;;;;;22.05;7.43;;;10.90;99.90;;;;;;5048763;28;20476;-81
2023/01/05 09:22:36;;;;;;;26.67;7.63;;;11.00;99.90;;;;;;5048309;28;20603;-83
2023/01/05 09:25:04;;;;;;;25.47;6.20;;;11.10;99.90;;;;;;5049705;28;20452;-84
2023/01/05 09:27:31;;;;;;;20.17;6.97;;;11.10;99.90;;;;;;5041778;28;20503;-83
2023/01/05 09:29:59;;;;;;;23.90;6.17;;;11.00;99.90;;;;;;5049059;28;20459;-83
2023/01/05 09:32:26;;;;;;;18.30;5.63;;;11.00;99.90;;;;;;5053055;28;20511;-82
2023/01/05 09:34:53;;;;;;;26.13;6.67;;;11.10;99.90;;;;;;5054653;28;20460;-83
2023/01/05 09:37:19;;;;;;;24.93;7.50;;;11.10;99.90;;;;;;5054284;28;20490;-82
2023/01/05 09:39:47;;;;;;;20.27;6.33;;;11.10;99.90;;;;;;5054416;28;20424;-85
2023/01/05 09:42:17;;;;;;;18.07;6.37;;;11.20;99.90;;;;;;5055747;28;20511;-84
2023/01/05 09:44:48;;;;;;;30.03;6.07;;;11.20;99.90;;;;;;5054968;28;20475;-84
2023/01/05 09:47:29;;;;;;;26.33;7.83;;;11.20;99.90;;;;;;5053528;28;20469;-84
2023/01/05 09:49:58;;;;;;;25.83;7.10;;;11.20;99.90;;;;;;5053199;28;20515;-84
2023/01/05 09:52:26;;;;;;;28.20;6.87;;;11.30;99.90;;;;;;5054247;28;20527;-84
2023/01/05 09:54:53;;;;;;;23.90;6.20;;;11.20;99.90;;;;;;5043614;28;20451;-80
2023/01/05 09:57:23;;;;;;;21.07;6.70;;;11.30;99.90;;;;;;5034042;28;20515;-79
2023/01/05 09:59:53;;;;;;;20.23;6.33;;;11.30;99.90;;;;;;5039546;28;20456;-79
2023/01/05 10:02:29;;;;;;;19.20;7.70;;;11.20;99.90;;;;;;5032614;28;20438;-80
2023/01/05 10:04:58;;;;;;;25.27;6.93;;;11.20;99.90;;;;;;5042891;28;20467;-79
2023/01/05 10:07:40;;;;;;;23.87;6.27;;;11.30;99.90;;;;;;5035768;28;20501;-82
2023/01/05 10:10:17;;;;;;;17.63;6.00;;;11.50;99.90;;;;;;5042193;28;20459;-81
2023/01/05 10:13:02;;;;;;;18.20;6.30;;;11.40;99.90;;;;;;5046707;28;20569;-81
2023/01/05 10:15:36;;;;;;;19.13;7.03;;;11.40;99.90;;;;;;5040262;28;20506;-81
2023/01/05 10:18:10;;;;;;;22.63;6.80;;;11.30;99.90;;;;;;5048341;28;20479;-81
2023/01/05 10:20:50;;;;;;;19.60;8.13;;;11.30;99.90;;;;;;5046711;28;20472;-81
2023/01/05 10:23:51;;;;;;;26.83;7.57;;;11.50;99.90;;;;;;5047494;28;20487;-83
2023/01/05 10:26:23;;;;;;;21.80;7.90;;;11.50;99.90;;;;;;5028060;28;20532;-81
2023/01/05 10:28:57;;;;;;;26.67;8.10;;;11.60;99.90;;;;;;5051229;28;20466;-82
2023/01/05 10:31:32;;;;;;;19.97;7.50;;;11.60;99.90;;;;;;5051342;28;20450;-82
2023/01/05 10:34:07;;;;;;;27.53;7.80;;;11.80;99.90;;;;;;5052077;28;20519;-81
2023/01/05 10:36:52;;;;;;;27.47;7.97;;;11.90;99.90;;;;;;5049975;28;20448;-82
2023/01/05 10:39:29;;;;;;;26.00;7.33;;;12.00;99.90;;;;;;5052980;28;20519;-83
2023/01/05 10:42:02;;;;;;;21.73;7.23;;;12.20;99.90;;;;;;5033383;28;20456;-79
2023/01/05 10:44:52;;;;;;;23.77;7.17;;;12.30;99.90;;;;;;5042142;28;20471;-82
2023/01/05 10:47:20;;;;;;;18.93;7.00;;;12.40;99.90;;;;;;5050326;28;20482;-81
2023/01/05 10:49:49;;;;;;;22.50;6.37;;;12.50;99.90;;;;;;5052162;28;20449;-82
2023/01/05 10:52:18;;;;;;;21.10;7.20;;;12.60;99.90;;;;;;5050275;28;20516;-81
2023/01/05 10:54:48;;;;;;;27.70;7.67;;;12.90;99.90;;;;;;5051062;28;20490;-83
2023/01/05 10:57:37;;;;;;;28.97;6.13;;;13.00;99.90;;;;;;5050490;28;20477;-83
2023/01/05 11:00:11;;;;;;;23.57;6.17;;;12.80;99.90;;;;;;5050787;28;20465;-82
2023/01/05 11:02:40;;;;;;;21.10;6.23;;;12.80;99.90;;;;;;5051782;28;20450;-83
2023/01/05 11:05:25;;;;;;;26.30;6.50;;;12.60;99.90;;;;;;5050971;28;20521;-82
2023/01/05 11:07:55;;;;;;;16.83;6.17;;;12.50;99.90;;;;;;5050952;28;20527;-83
2023/01/05 11:10:27;;;;;;;20.73;5.50;;;12.60;99.90;;;;;;5052265;28;20752;-82
2023/01/05 11:13:01;;;;;;;17.67;5.90;;;12.70;99.90;;;;;;5052458;28;20519;-83
2023/01/05 11:15:29;;;;;;;20.87;6.07;;;12.80;99.90;;;;;;5045150;28;20472;-83
2023/01/05 11:17:56;;;;;;;25.47;5.93;;;12.60;99.90;;;;;;5048199;28;20557;-83
2023/01/05 11:20:29;;;;;;;22.07;6.43;;;12.60;99.90;;;;;;5051447;28;20456;-83
2023/01/05 11:22:56;;;;;;;19.60;5.40;;;12.50;99.90;;;;;;5047879;28;20460;-82
2023/01/05 11:25:27;;;;;;;20.20;5.83;;;12.40;99.90;;;;;;5049919;28;20437;-81
2023/01/05 11:28:13;;;;;;;15.83;6.20;;;12.40;99.90;;;;;;5041412;28;20513;-81
2023/01/05 11:30:48;;;;;;;20.20;7.00;;;12.40;99.90;;;;;;5052036;28;20456;-82
2023/01/05 11:33:24;;;;;;;15.77;7.43;;;12.30;99.90;;;;;;5048594;28;20511;-84
2023/01/05 11:35:52;;;;;;;21.10;6.27;;;12.40;99.90;;;;;;5044933;28;20462;-83
2023/01/05 11:38:23;;;;;;;23.23;7.07;;;12.40;99.90;;;;;;5050414;28;20581;-84
2023/01/05 11:40:50;;;;;;;16.20;6.10;;;12.40;99.90;;;;;;5051918;28;20449;-84
2023/01/05 11:43:19;;;;;;;12.40;5.30;;;12.40;99.90;;;;;;5053085;28;20476;-84
2023/01/05 11:45:59;;;;;;;22.13;6.40;;;12.50;99.90;;;;;;5052191;28;20451;-83
2023/01/05 11:48:30;;;;;;;25.70;6.60;;;12.50;99.90;;;;;;5051785;28;20478;-84
2023/01/05 11:50:59;;;;;;;17.30;5.53;;;12.40;99.90;;;;;;5034391;28;20454;-85
2023/01/05 11:53:36;;;;;;;24.13;6.30;;;12.30;99.90;;;;;;5039609;28;20534;-82
2023/01/05 11:56:05;;;;;;;20.27;5.50;;;12.40;99.90;;;;;;5039213;28;20528;-85
2023/01/05 11:58:33;;;;;;;17.43;4.73;;;12.50;99.90;;;;;;5038066;28;20938;-85
2023/01/05 12:01:25;;;;;;;20.20;5.17;;;12.40;99.90;;;;;;5041104;28;20515;-84
2023/01/05 12:04:04;;;;;;;15.73;5.30;;;12.50;99.90;;;;;;5040908;28;20483;-85
2023/01/05 12:07:08;;;;;;;23.73;6.87;;;12.50;99.90;;;;;;5041654;28;20461;-85
2023/01/05 12:09:38;;;;;;;17.17;6.03;;;12.60;99.90;;;;;;5038833;28;20939;-86
2023/01/05 12:12:26;;;;;;;20.50;5.33;;;12.80;99.90;;;;;;5041984;28;20462;-86
2023/01/05 12:15:16;;;;;;;26.13;5.47;;;12.70;99.90;;;;;;5040325;28;20495;-84
2023/01/05 12:17:50;;;;;;;19.50;4.70;;;12.60;99.90;;;;;;5022031;28;20499;-85
2023/01/05 12:20:41;;;;;;;17.97;5.50;;;12.80;99.90;;;;;;5020574;28;20542;-85
2023/01/05 12:23:23;;;;;;;20.83;5.23;;;12.70;99.90;;;;;;5038848;28;20463;-85
2023/01/05 12:26:03;;;;;;;31.03;7.73;;;12.50;99.90;;;;;;5040473;28;20462;-85
2023/01/05 12:28:46;;;;;;;18.73;5.30;;;12.60;99.90;;;;;;5041857;28;20481;-84
2023/01/05 12:31:29;;;;;;;24.47;5.03;;;12.70;99.90;;;;;;5040097;28;20547;-85
2023/01/05 12:34:26;;;;;;;9.70;4.40;;;12.80;99.90;;;;;;5021880;28;20564;-85
2023/01/05 12:37:16;;;;;;;14.10;4.00;;;13.00;99.90;;;;;;5014327;28;20482;-85
2023/01/05 12:40:02;;;;;;;17.00;5.20;;;12.90;99.90;;;;;;5023176;28;20556;-84
2023/01/05 12:42:48;;;;;;;15.10;4.20;;;12.70;99.90;;;;;;5020521;28;20906;-85
2023/01/05 12:45:46;;;;;;;15.03;4.50;;;12.60;99.90;;;;;;5025746;28;20465;-83
2023/01/05 12:48:17;;;;;;;17.10;4.80;;;12.80;99.90;;;;;;5017137;28;20469;-85
2023/01/05 12:50:50;;;;;;;14.13;4.20;;;12.80;99.90;;;;;;5036860;28;20463;-84
2023/01/05 12:53:32;;;;;;;21.50;6.10;;;12.90;99.90;;;;;;5037095;28;20494;-84
2023/01/05 12:56:03;;;;;;;17.60;3.83;;;13.00;99.90;;;;;;5027634;28;20490;-84
2023/01/05 13:01:00;;;;;;;14.87;4.87;;;13.10;99.90;;;;;;5033084;28;21027;-79
2023/01/05 13:03:33;;;;;;;12.87;4.23;;;13.20;99.90;;;;;;5036719;28;20960;-79
2023/01/05 13:06:06;;;;;;;23.30;5.10;;;13.20;99.90;;;;;;5038780;28;20823;-81
2023/01/05 13:08:38;;;;;;;14.50;4.97;;;13.00;99.90;;;;;;5037689;28;20448;-80
2023/01/05 13:11:14;;;;;;;18.00;4.37;;;13.20;99.90;;;;;;5036227;28;20452;-80
2023/01/05 13:13:45;;;;;;;19.30;3.73;;;13.20;99.90;;;;;;5026505;28;20485;-80
2023/01/05 13:16:16;;;;;;;16.13;3.83;;;13.20;99.90;;;;;;5032155;28;20450;-80
2023/01/05 13:18:50;;;;;;;17.93;4.90;;;13.20;99.90;;;;;;5020758;28;20465;-79
2023/01/05 13:21:18;;;;;;;16.87;3.40;;;13.20;99.90;;;;;;5040169;28;20447;-81
2023/01/05 13:23:50;;;;;;;17.90;3.90;;;13.30;99.90;;;;;;5024301;28;20491;-80
2023/01/05 13:26:20;;;;;;;14.23;3.07;;;13.20;99.90;;;;;;5039024;28;20461;-80
2023/01/05 13:28:48;;;;;;;13.00;3.93;;;13.20;99.90;;;;;;5038957;28;20518;-79
2023/01/05 13:31:49;;;;;;;12.93;3.30;;;13.10;99.90;;;;;;5041699;28;21029;-81